sensor_id;sensor_type;location;lat;lon;timestamp;pressure;altitude;pressure_sealevel;temperature;humidity
29909;BME280;36247;51.952;6.146;2022-12-07T00:01:26;101613.25;;;3.43;100.00
29909;BME280;36247;51.952;6.146;2022-12-07T00:03:53;101610.84;;;3.46;100.00
29909;BME280;36247;51.952;6.146;2022-12-07T00:06:22;101617.31;;;3.53;100.00
29909;BME280;36247;51.952;6.146;2022-12-07T00:08:48;101606.19;;;3.57;100.00
29909;BME280;36247;51.952;6.146;2022-12-07T00:11:16;101601.91;;;3.59;100.00
29909;BME280;36247;51.952;6.146;2022-12-07T00:13:42;101598.50;;;3.60;100.00
29909;BME280;36247;51.952;6.146;2022-12-07T00:16:11;101600.19;;;3.60;100.00
29909;BME280;36247;51.952;6.146;2022-12-07T00:18:38;101601.84;;;3.58;100.00
29909;BME280;36247;51.952;6.146;2022-12-07T00:21:08;101597.25;;;3.53;100.00
29909;BME280;36247;51.952;6.146;2022-12-07T00:23:35;101593.66;;;3.51;100.00
29909;BME280;36247;51.952;6.146;2022-12-07T00:26:08;101592.59;;;3.48;100.00
29909;BME280;36247;51.952;6.146;2022-12-07T00:28:34;101581.56;;;3.39;100.00
29909;BME280;36247;51.952;6.146;2022-12-07T00:31:11;101586.00;;;3.40;100.00
29909;BME280;36247;51.952;6.146;2022-12-07T00:33:37;101585.50;;;3.30;100.00
29909;BME280;36247;51.952;6.146;2022-12-07T00:36:09;101582.56;;;3.24;100.00
29909;BME280;36247;51.952;6.146;2022-12-07T00:38:36;101587.53;;;3.20;100.00
29909;BME280;36247;51.952;6.146;2022-12-07T00:41:04;101586.44;;;3.16;100.00
29909;BME280;36247;51.952;6.146;2022-12-07T00:43:30;101588.72;;;3.10;100.00
29909;BME280;36247;51.952;6.146;2022-12-07T00:48:16;101588.84;;;2.96;100.00
29909;BME280;36247;51.952;6.146;2022-12-07T00:50:42;101586.97;;;2.94;100.00
29909;BME280;36247;51.952;6.146;2022-12-07T00:53:08;101588.50;;;2.90;100.00
29909;BME280;36247;51.952;6.146;2022-12-07T00:55:34;101580.22;;;2.82;100.00
29909;BME280;36247;51.952;6.146;2022-12-07T00:57:59;101587.16;;;2.82;100.00
29909;BME280;36247;51.952;6.146;2022-12-07T01:00:27;101580.22;;;2.82;100.00
29909;BME280;36247;51.952;6.146;2022-12-07T01:02:53;101576.50;;;2.79;100.00
29909;BME280;36247;51.952;6.146;2022-12-07T01:05:18;101574.91;;;2.81;100.00
29909;BME280;36247;51.952;6.146;2022-12-07T01:07:44;101574.81;;;2.79;100.00
29909;BME280;36247;51.952;6.146;2022-12-07T01:10:11;101573.63;;;2.74;100.00
29909;BME280;36247;51.952;6.146;2022-12-07T01:12:36;101573.72;;;2.76;100.00
29909;BME280;36247;51.952;6.146;2022-12-07T01:15:02;101570.84;;;2.71;100.00
29909;BME280;36247;51.952;6.146;2022-12-07T01:17:28;101575.09;;;2.69;100.00
29909;BME280;36247;51.952;6.146;2022-12-07T01:19:53;101574.50;;;2.58;100.00
29909;BME280;36247;51.952;6.146;2022-12-07T01:22:19;101577.09;;;2.58;100.00
29909;BME280;36247;51.952;6.146;2022-12-07T01:24:44;101570.78;;;2.55;100.00
29909;BME280;36247;51.952;6.146;2022-12-07T01:27:12;101588.28;;;2.56;100.00
29909;BME280;36247;51.952;6.146;2022-12-07T01:29:38;101586.13;;;2.49;100.00
29909;BME280;36247;51.952;6.146;2022-12-07T01:32:04;101595.59;;;2.46;100.00
29909;BME280;36247;51.952;6.146;2022-12-07T01:34:29;101596.13;;;2.41;100.00
29909;BME280;36247;51.952;6.146;2022-12-07T01:36:55;101599.56;;;2.40;100.00
29909;BME280;36247;51.952;6.146;2022-12-07T01:39:20;101597.75;;;2.39;100.00
29909;BME280;36247;51.952;6.146;2022-12-07T01:41:46;101594.94;;;2.36;100.00
29909;BME280;36247;51.952;6.146;2022-12-07T01:44:16;101592.16;;;2.33;100.00
29909;BME280;36247;51.952;6.146;2022-12-07T01:46:47;101594.69;;;2.31;100.00
29909;BME280;36247;51.952;6.146;2022-12-07T01:49:27;101595.22;;;2.25;100.00
29909;BME280;36247;51.952;6.146;2022-12-07T01:52:02;101590.91;;;2.26;100.00
29909;BME280;36247;51.952;6.146;2022-12-07T01:54:30;101584.75;;;2.25;100.00
29909;BME280;36247;51.952;6.146;2022-12-07T01:56:57;101580.53;;;2.27;100.00
29909;BME280;36247;51.952;6.146;2022-12-07T01:59:24;101577.75;;;2.24;100.00
29909;BME280;36247;51.952;6.146;2022-12-07T02:01:52;101573.22;;;2.22;100.00
29909;BME280;36247;51.952;6.146;2022-12-07T02:04:18;101582.97;;;2.24;100.00
29909;BME280;36247;51.952;6.146;2022-12-07T02:06:45;101585.41;;;2.21;100.00
29909;BME280;36247;51.952;6.146;2022-12-07T02:09:15;101578.34;;;2.20;100.00
29909;BME280;36247;51.952;6.146;2022-12-07T02:11:40;101575.47;;;2.16;100.00
29909;BME280;36247;51.952;6.146;2022-12-07T02:14:06;101571.97;;;2.15;100.00
29909;BME280;36247;51.952;6.146;2022-12-07T02:27:07;101580.44;;;2.11;100.00
29909;BME280;36247;51.952;6.146;2022-12-07T02:30:00;101581.13;;;2.08;100.00
29909;BME280;36247;51.952;6.146;2022-12-07T02:38:14;101591.13;;;2.01;100.00
29909;BME280;36247;51.952;6.146;2022-12-07T02:40:48;101597.91;;;1.97;100.00
29909;BME280;36247;51.952;6.146;2022-12-07T02:43:28;101589.75;;;1.92;100.00
29909;BME280;36247;51.952;6.146;2022-12-07T02:45:57;101586.53;;;1.97;100.00
29909;BME280;36247;51.952;6.146;2022-12-07T02:48:25;101592.47;;;1.94;100.00
29909;BME280;36247;51.952;6.146;2022-12-07T02:50:53;101582.00;;;1.94;100.00
29909;BME280;36247;51.952;6.146;2022-12-07T02:55:58;101576.25;;;2.00;100.00
29909;BME280;36247;51.952;6.146;2022-12-07T02:58:45;101574.00;;;2.06;100.00
29909;BME280;36247;51.952;6.146;2022-12-07T03:04:33;101575.38;;;2.14;100.00
29909;BME280;36247;51.952;6.146;2022-12-07T03:07:20;101578.25;;;2.19;100.00
29909;BME280;36247;51.952;6.146;2022-12-07T03:09:55;101572.94;;;2.17;100.00
29909;BME280;36247;51.952;6.146;2022-12-07T03:12:32;101579.25;;;2.21;100.00
29909;BME280;36247;51.952;6.146;2022-12-07T03:15:12;101584.75;;;2.25;100.00
29909;BME280;36247;51.952;6.146;2022-12-07T03:17:42;101583.25;;;2.29;100.00
29909;BME280;36247;51.952;6.146;2022-12-07T03:20:13;101590.38;;;2.32;100.00
29909;BME280;36247;51.952;6.146;2022-12-07T03:22:42;101586.75;;;2.29;100.00
29909;BME280;36247;51.952;6.146;2022-12-07T03:25:11;101573.03;;;2.34;100.00
29909;BME280;36247;51.952;6.146;2022-12-07T03:27:49;101578.28;;;2.34;100.00
29909;BME280;36247;51.952;6.146;2022-12-07T03:30:20;101580.44;;;2.41;100.00
29909;BME280;36247;51.952;6.146;2022-12-07T03:32:54;101574.28;;;2.40;100.00
29909;BME280;36247;51.952;6.146;2022-12-07T03:35:26;101576.19;;;2.43;100.00
29909;BME280;36247;51.952;6.146;2022-12-07T03:40:30;101560.59;;;2.44;100.00
29909;BME280;36247;51.952;6.146;2022-12-07T03:42:59;101565.72;;;2.43;100.00
29909;BME280;36247;51.952;6.146;2022-12-07T03:45:40;101559.34;;;2.38;100.00
29909;BME280;36247;51.952;6.146;2022-12-07T03:50:43;101558.72;;;2.42;100.00
29909;BME280;36247;51.952;6.146;2022-12-07T03:53:58;101554.28;;;2.41;100.00
29909;BME280;36247;51.952;6.146;2022-12-07T03:56:05;101554.28;;;2.41;100.00
29909;BME280;36247;51.952;6.146;2022-12-07T03:58:33;101560.25;;;2.38;100.00
29909;BME280;36247;51.952;6.146;2022-12-07T04:00:59;101562.69;;;2.35;100.00
29909;BME280;36247;51.952;6.146;2022-12-07T04:03:24;101555.00;;;2.38;100.00
29909;BME280;36247;51.952;6.146;2022-12-07T04:05:50;101562.75;;;2.37;100.00
29909;BME280;36247;51.952;6.146;2022-12-07T04:08:16;101563.66;;;2.37;100.00
29909;BME280;36247;51.952;6.146;2022-12-07T04:10:41;101567.47;;;2.42;100.00
29909;BME280;36247;51.952;6.146;2022-12-07T04:13:07;101560.25;;;2.38;100.00
29909;BME280;36247;51.952;6.146;2022-12-07T04:15:32;101560.31;;;2.40;100.00
29909;BME280;36247;51.952;6.146;2022-12-07T04:17:58;101556.81;;;2.39;100.00
29909;BME280;36247;51.952;6.146;2022-12-07T04:20:23;101553.75;;;2.32;100.00
29909;BME280;36247;51.952;6.146;2022-12-07T04:22:49;101554.66;;;2.32;100.00
29909;BME280;36247;51.952;6.146;2022-12-07T04:25:14;101550.75;;;2.25;100.00
29909;BME280;36247;51.952;6.146;2022-12-07T04:27:40;101553.50;;;2.27;100.00
29909;BME280;36247;51.952;6.146;2022-12-07T04:30:06;101562.31;;;2.14;100.00
29909;BME280;36247;51.952;6.146;2022-12-07T04:32:31;101562.50;;;2.17;100.00
29909;BME280;36247;51.952;6.146;2022-12-07T04:34:57;101561.41;;;2.14;100.00
29909;BME280;36247;51.952;6.146;2022-12-07T04:37:23;101563.72;;;2.09;100.00
29909;BME280;36247;51.952;6.146;2022-12-07T04:39:49;101560.13;;;2.07;100.00
29909;BME280;36247;51.952;6.146;2022-12-07T04:42:14;101553.94;;;2.05;100.00
29909;BME280;36247;51.952;6.146;2022-12-07T04:44:40;101552.72;;;2.00;100.00
29909;BME280;36247;51.952;6.146;2022-12-07T04:47:05;101560.31;;;1.95;100.00
29909;BME280;36247;51.952;6.146;2022-12-07T04:49:31;101562.28;;;1.99;100.00
29909;BME280;36247;51.952;6.146;2022-12-07T04:51:56;101562.56;;;2.04;100.00
29909;BME280;36247;51.952;6.146;2022-12-07T04:54:22;101558.22;;;2.04;100.00
29909;BME280;36247;51.952;6.146;2022-12-07T04:56:48;101556.63;;;2.06;100.00
29909;BME280;36247;51.952;6.146;2022-12-07T04:59:15;101556.28;;;2.00;100.00
29909;BME280;36247;51.952;6.146;2022-12-07T05:01:41;101544.28;;;2.04;100.00
29909;BME280;36247;51.952;6.146;2022-12-07T05:04:07;101543.66;;;2.08;100.00
29909;BME280;36247;51.952;6.146;2022-12-07T05:06:32;101540.59;;;2.00;100.00
29909;BME280;36247;51.952;6.146;2022-12-07T05:08:58;101537.50;;;2.07;100.00
29909;BME280;36247;51.952;6.146;2022-12-07T05:11:24;101535.72;;;2.06;100.00
29909;BME280;36247;51.952;6.146;2022-12-07T05:14:16;101545.44;;;2.09;100.00
29909;BME280;36247;51.952;6.146;2022-12-07T05:16:43;101547.34;;;2.11;100.00
29909;BME280;36247;51.952;6.146;2022-12-07T05:19:09;101542.13;;;2.11;100.00
29909;BME280;36247;51.952;6.146;2022-12-07T05:21:36;101539.94;;;2.04;100.00
29909;BME280;36247;51.952;6.146;2022-12-07T05:24:01;101542.28;;;2.00;100.00
29909;BME280;36247;51.952;6.146;2022-12-07T05:26:27;101544.91;;;2.00;100.00
29909;BME280;36247;51.952;6.146;2022-12-07T05:28:54;101549.06;;;1.96;100.00
29909;BME280;36247;51.952;6.146;2022-12-07T05:31:20;101542.72;;;1.92;100.00
29909;BME280;36247;51.952;6.146;2022-12-07T05:33:45;101546.16;;;1.91;100.00
29909;BME280;36247;51.952;6.146;2022-12-07T05:36:11;101549.38;;;1.87;100.00
29909;BME280;36247;51.952;6.146;2022-12-07T05:38:36;101549.81;;;1.80;100.00
29909;BME280;36247;51.952;6.146;2022-12-07T05:41:03;101544.69;;;1.82;100.00
29909;BME280;36247;51.952;6.146;2022-12-07T05:43:29;101554.78;;;1.75;100.00
29909;BME280;36247;51.952;6.146;2022-12-07T05:45:55;101551.69;;;1.68;100.00
29909;BME280;36247;51.952;6.146;2022-12-07T05:48:21;101545.19;;;1.61;100.00
29909;BME280;36247;51.952;6.146;2022-12-07T05:50:48;101549.31;;;1.57;100.00
29909;BME280;36247;51.952;6.146;2022-12-07T05:53:14;101544.09;;;1.57;100.00
29909;BME280;36247;51.952;6.146;2022-12-07T05:55:39;101545.28;;;1.63;100.00
29909;BME280;36247;51.952;6.146;2022-12-07T05:58:05;101540.53;;;1.70;100.00
29909;BME280;36247;51.952;6.146;2022-12-07T06:00:49;101535.69;;;1.76;100.00
29909;BME280;36247;51.952;6.146;2022-12-07T06:03:14;101534.06;;;1.79;100.00
29909;BME280;36247;51.952;6.146;2022-12-07T06:05:40;101540.25;;;1.81;100.00
29909;BME280;36247;51.952;6.146;2022-12-07T06:08:06;101536.16;;;1.84;100.00
29909;BME280;36247;51.952;6.146;2022-12-07T06:12:52;101534.34;;;1.98;100.00
29909;BME280;36247;51.952;6.146;2022-12-07T06:15:17;101534.25;;;1.97;100.00
29909;BME280;36247;51.952;6.146;2022-12-07T06:17:43;101537.50;;;1.92;100.00
29909;BME280;36247;51.952;6.146;2022-12-07T06:20:08;101540.75;;;1.88;100.00
29909;BME280;36247;51.952;6.146;2022-12-07T06:22:34;101539.66;;;1.85;100.00
29909;BME280;36247;51.952;6.146;2022-12-07T06:24:59;101540.38;;;1.82;100.00
29909;BME280;36247;51.952;6.146;2022-12-07T06:27:25;101537.66;;;1.81;100.00
29909;BME280;36247;51.952;6.146;2022-12-07T06:29:50;101535.16;;;1.82;100.00
29909;BME280;36247;51.952;6.146;2022-12-07T06:32:15;101538.56;;;1.81;100.00
29909;BME280;36247;51.952;6.146;2022-12-07T06:34:41;101537.78;;;1.82;100.00
29909;BME280;36247;51.952;6.146;2022-12-07T06:37:07;101536.84;;;1.82;100.00
29909;BME280;36247;51.952;6.146;2022-12-07T06:39:32;101539.66;;;1.85;100.00
29909;BME280;36247;51.952;6.146;2022-12-07T06:41:58;101534.34;;;1.83;100.00
29909;BME280;36247;51.952;6.146;2022-12-07T06:44:24;101546.31;;;1.80;100.00
29909;BME280;36247;51.952;6.146;2022-12-07T06:46:50;101541.63;;;1.74;100.00
29909;BME280;36247;51.952;6.146;2022-12-07T06:49:16;101541.25;;;1.68;100.00
29909;BME280;36247;51.952;6.146;2022-12-07T06:51:42;101536.03;;;1.68;100.00
29909;BME280;36247;51.952;6.146;2022-12-07T06:54:09;101536.91;;;1.68;100.00
29909;BME280;36247;51.952;6.146;2022-12-07T06:56:35;101544.47;;;1.64;100.00
29909;BME280;36247;51.952;6.146;2022-12-07T06:59:01;101549.50;;;1.61;100.00
29909;BME280;36247;51.952;6.146;2022-12-07T07:01:26;101549.31;;;1.57;100.00
29909;BME280;36247;51.952;6.146;2022-12-07T07:03:52;101551.84;;;1.56;100.00
29909;BME280;36247;51.952;6.146;2022-12-07T07:06:17;101559.59;;;1.54;100.00
29909;BME280;36247;51.952;6.146;2022-12-07T07:08:43;101549.94;;;1.53;100.00
29909;BME280;36247;51.952;6.146;2022-12-07T07:11:09;101553.75;;;1.58;100.00
29909;BME280;36247;51.952;6.146;2022-12-07T07:13:35;101554.03;;;1.63;100.00
29909;BME280;36247;51.952;6.146;2022-12-07T07:16:00;101552.41;;;1.65;100.00
29909;BME280;36247;51.952;6.146;2022-12-07T07:18:26;101558.75;;;1.69;100.00
29909;BME280;36247;51.952;6.146;2022-12-07T07:20:52;101551.53;;;1.80;100.00
29909;BME280;36247;51.952;6.146;2022-12-07T07:23:18;101552.63;;;1.83;100.00
29909;BME280;36247;51.952;6.146;2022-12-07T07:25:44;101556.06;;;1.82;100.00
29909;BME280;36247;51.952;6.146;2022-12-07T07:28:09;101555.13;;;1.82;100.00
29909;BME280;36247;51.952;6.146;2022-12-07T07:30:35;101556.88;;;1.81;100.00
29909;BME280;36247;51.952;6.146;2022-12-07T07:33:02;101551.63;;;1.81;100.00
29909;BME280;36247;51.952;6.146;2022-12-07T07:35:30;101558.69;;;1.82;100.00
29909;BME280;36247;51.952;6.146;2022-12-07T07:37:56;101556.69;;;1.78;100.00
29909;BME280;36247;51.952;6.146;2022-12-07T07:40:22;101558.38;;;1.77;100.00
29909;BME280;36247;51.952;6.146;2022-12-07T07:42:50;101563.59;;;1.77;100.00
29909;BME280;36247;51.952;6.146;2022-12-07T07:45:17;101567.94;;;1.77;100.00
29909;BME280;36247;51.952;6.146;2022-12-07T07:47:43;101562.88;;;1.80;100.00
29909;BME280;36247;51.952;6.146;2022-12-07T07:50:09;101555.94;;;1.81;100.00
29909;BME280;36247;51.952;6.146;2022-12-07T07:52:34;101557.75;;;1.82;100.00
29909;BME280;36247;51.952;6.146;2022-12-07T07:55:00;101556.97;;;1.83;100.00
29909;BME280;36247;51.952;6.146;2022-12-07T07:57:26;101557.94;;;1.85;100.00
29909;BME280;36247;51.952;6.146;2022-12-07T07:59:52;101556.78;;;1.80;100.00
29909;BME280;36247;51.952;6.146;2022-12-07T08:02:19;101557.66;;;1.80;100.00
29909;BME280;36247;51.952;6.146;2022-12-07T08:04:45;101556.06;;;1.82;100.00
29909;BME280;36247;51.952;6.146;2022-12-07T08:07:11;101568.09;;;1.80;100.00
29909;BME280;36247;51.952;6.146;2022-12-07T08:09:37;101570.63;;;1.79;100.00
29909;BME280;36247;51.952;6.146;2022-12-07T08:12:03;101565.41;;;1.79;100.00
29909;BME280;36247;51.952;6.146;2022-12-07T08:14:30;101573.25;;;1.79;100.00
29909;BME280;36247;51.952;6.146;2022-12-07T08:16:56;101573.63;;;1.85;100.00
29909;BME280;36247;51.952;6.146;2022-12-07T08:19:22;101572.63;;;1.83;100.00
29909;BME280;36247;51.952;6.146;2022-12-07T08:21:48;101570.28;;;1.87;100.00
29909;BME280;36247;51.952;6.146;2022-12-07T08:24:13;101577.53;;;1.91;100.00
29909;BME280;36247;51.952;6.146;2022-12-07T08:26:39;101586.00;;;2.02;100.00
29909;BME280;36247;51.952;6.146;2022-12-07T08:29:05;101574.59;;;2.15;100.00
29909;BME280;36247;51.952;6.146;2022-12-07T08:31:30;101573.22;;;2.22;100.00
29909;BME280;36247;51.952;6.146;2022-12-07T08:33:56;101580.63;;;2.29;100.00
29909;BME280;36247;51.952;6.146;2022-12-07T08:36:22;101584.13;;;2.29;100.00
29909;BME280;36247;51.952;6.146;2022-12-07T08:38:48;101586.03;;;2.32;100.00
29909;BME280;36247;51.952;6.146;2022-12-07T08:41:13;101593.53;;;2.41;100.00
29909;BME280;36247;51.952;6.146;2022-12-07T08:43:39;101588.72;;;2.34;100.00
29909;BME280;36247;51.952;6.146;2022-12-07T08:46:20;101593.06;;;2.33;100.00
29909;BME280;36247;51.952;6.146;2022-12-07T08:48:54;101578.72;;;2.41;100.00
29909;BME280;36247;51.952;6.146;2022-12-07T08:51:22;101581.59;;;2.46;100.00
29909;BME280;36247;51.952;6.146;2022-12-07T08:53:49;101578.38;;;2.50;100.00
29909;BME280;36247;51.952;6.146;2022-12-07T08:56:15;101582.63;;;2.48;100.00
29909;BME280;36247;51.952;6.146;2022-12-07T08:58:40;101583.69;;;2.52;100.00
29909;BME280;36247;51.952;6.146;2022-12-07T09:01:06;101584.03;;;2.58;100.00
29909;BME280;36247;51.952;6.146;2022-12-07T09:03:32;101576.88;;;2.70;100.00
29909;BME280;36247;51.952;6.146;2022-12-07T09:05:58;101580.25;;;2.68;100.00
29909;BME280;36247;51.952;6.146;2022-12-07T09:08:29;101569.78;;;2.68;100.00
29909;BME280;36247;51.952;6.146;2022-12-07T09:10:55;101579.50;;;2.70;100.00
29909;BME280;36247;51.952;6.146;2022-12-07T09:13:21;101571.47;;;2.67;100.00
29909;BME280;36247;51.952;6.146;2022-12-07T09:15:46;101574.72;;;2.78;100.00
29909;BME280;36247;51.952;6.146;2022-12-07T09:18:12;101574.38;;;2.87;100.00
29909;BME280;36247;51.952;6.146;2022-12-07T09:20:37;101572.88;;;2.92;100.00
29909;BME280;36247;51.952;6.146;2022-12-07T09:23:05;101575.84;;;2.98;100.00
29909;BME280;36247;51.952;6.146;2022-12-07T09:25:31;101575.56;;;3.08;100.00
29909;BME280;36247;51.952;6.146;2022-12-07T09:27:57;101577.56;;;3.29;100.00
29909;BME280;36247;51.952;6.146;2022-12-07T09:30:23;101571.25;;;3.25;100.00
29909;BME280;36247;51.952;6.146;2022-12-07T09:32:48;101568.13;;;3.16;100.00
29909;BME280;36247;51.952;6.146;2022-12-07T09:35:14;101574.88;;;3.27;100.00
29909;BME280;36247;51.952;6.146;2022-12-07T09:37:39;101570.78;;;3.32;100.00
29909;BME280;36247;51.952;6.146;2022-12-07T09:40:05;101577.34;;;3.41;100.00
29909;BME280;36247;51.952;6.146;2022-12-07T09:42:36;101576.53;;;3.75;100.00
29909;BME280;36247;51.952;6.146;2022-12-07T09:45:04;101568.84;;;3.94;100.00
29909;BME280;36247;51.952;6.146;2022-12-07T09:47:30;101561.97;;;4.31;100.00
29909;BME280;36247;51.952;6.146;2022-12-07T09:50:14;101564.41;;;4.62;100.00
29909;BME280;36247;51.952;6.146;2022-12-07T09:52:42;101552.69;;;5.09;100.00
29909;BME280;36247;51.952;6.146;2022-12-07T09:55:21;101553.75;;;4.95;100.00
29909;BME280;36247;51.952;6.146;2022-12-07T09:57:49;101550.75;;;5.05;100.00
29909;BME280;36247;51.952;6.146;2022-12-07T10:00:18;101549.78;;;4.85;100.00
29909;BME280;36247;51.952;6.146;2022-12-07T10:05:20;101548.94;;;4.68;100.00
29909;BME280;36247;51.952;6.146;2022-12-07T10:07:47;101543.69;;;5.04;100.00
29909;BME280;36247;51.952;6.146;2022-12-07T10:10:17;101533.38;;;5.09;100.00
29909;BME280;36247;51.952;6.146;2022-12-07T10:12:54;101532.75;;;5.33;100.00
29909;BME280;36247;51.952;6.146;2022-12-07T10:15:23;101538.38;;;4.85;100.00
29909;BME280;36247;51.952;6.146;2022-12-07T10:18:17;101540.63;;;4.95;100.00
29909;BME280;36247;51.952;6.146;2022-12-07T10:20:45;101538.06;;;4.97;100.00
29909;BME280;36247;51.952;6.146;2022-12-07T10:23:20;101536.69;;;5.23;100.00
29909;BME280;36247;51.952;6.146;2022-12-07T10:25:45;101531.13;;;6.14;100.00
29909;BME280;36247;51.952;6.146;2022-12-07T10:28:18;101536.09;;;5.10;100.00
29909;BME280;36247;51.952;6.146;2022-12-07T10:30:57;101531.69;;;5.88;100.00
29909;BME280;36247;51.952;6.146;2022-12-07T10:33:48;101512.91;;;6.19;100.00
29909;BME280;36247;51.952;6.146;2022-12-07T10:36:26;101530.91;;;5.69;100.00
29909;BME280;36247;51.952;6.146;2022-12-07T10:39:03;101511.28;;;6.02;100.00
29909;BME280;36247;51.952;6.146;2022-12-07T10:41:29;101507.03;;;7.12;100.00
29909;BME280;36247;51.952;6.146;2022-12-07T10:43:57;101508.22;;;7.45;100.00
29909;BME280;36247;51.952;6.146;2022-12-07T10:55:25;101500.09;;;6.48;100.00
29909;BME280;36247;51.952;6.146;2022-12-07T11:00:34;101502.34;;;6.17;100.00
29909;BME280;36247;51.952;6.146;2022-12-07T11:03:35;101497.91;;;6.38;100.00
29909;BME280;36247;51.952;6.146;2022-12-07T11:11:44;101486.16;;;6.08;100.00
29909;BME280;36247;51.952;6.146;2022-12-07T11:14:28;101484.19;;;5.83;100.00
29909;BME280;36247;51.952;6.146;2022-12-07T11:17:01;101478.78;;;5.80;100.00
29909;BME280;36247;51.952;6.146;2022-12-07T11:22:59;101469.41;;;5.87;100.00
29909;BME280;36247;51.952;6.146;2022-12-07T11:37:08;101474.09;;;5.73;100.00
29909;BME280;36247;51.952;6.146;2022-12-07T11:39:52;101468.25;;;5.80;100.00
29909;BME280;36247;51.952;6.146;2022-12-07T11:42:25;101468.00;;;6.14;100.00
29909;BME280;36247;51.952;6.146;2022-12-07T11:45:12;101460.50;;;7.37;100.00
29909;BME280;36247;51.952;6.146;2022-12-07T11:48:01;101454.16;;;8.59;100.00
29909;BME280;36247;51.952;6.146;2022-12-07T11:50:38;101438.44;;;8.10;100.00
29909;BME280;36247;51.952;6.146;2022-12-07T11:55:50;101442.03;;;7.85;100.00
29909;BME280;36247;51.952;6.146;2022-12-07T12:01:14;101429.38;;;8.84;100.00
29909;BME280;36247;51.952;6.146;2022-12-07T12:03:48;101433.56;;;9.37;100.00
29909;BME280;36247;51.952;6.146;2022-12-07T12:06:14;101430.88;;;9.35;100.00
29909;BME280;36247;51.952;6.146;2022-12-07T12:16:48;101426.16;;;7.59;100.00
29909;BME280;36247;51.952;6.146;2022-12-07T12:22:12;101416.75;;;8.19;100.00
29909;BME280;36247;51.952;6.146;2022-12-07T12:24:40;101416.53;;;8.40;100.00
29909;BME280;36247;51.952;6.146;2022-12-07T12:27:09;101410.44;;;7.63;100.00
29909;BME280;36247;51.952;6.146;2022-12-07T12:29:41;101406.22;;;8.21;100.00
29909;BME280;36247;51.952;6.146;2022-12-07T12:32:19;101404.72;;;8.27;100.00
29909;BME280;36247;51.952;6.146;2022-12-07T12:35:22;101407.63;;;8.37;100.00
29909;BME280;36247;51.952;6.146;2022-12-07T12:37:48;101405.63;;;8.02;100.00
29909;BME280;36247;51.952;6.146;2022-12-07T12:45:28;101406.41;;;7.00;100.00
29909;BME280;36247;51.952;6.146;2022-12-07T12:48:26;101409.44;;;6.64;100.00
29909;BME280;36247;51.952;6.146;2022-12-07T12:50:43;101410.03;;;6.57;100.00
29909;BME280;36247;51.952;6.146;2022-12-07T12:56:02;101400.94;;;7.42;100.00
29909;BME280;36247;51.952;6.146;2022-12-07T12:58:36;101388.81;;;7.47;100.00
29909;BME280;36247;51.952;6.146;2022-12-07T13:01:44;101389.69;;;7.72;100.00
29909;BME280;36247;51.952;6.146;2022-12-07T13:04:17;101391.41;;;7.46;100.00
29909;BME280;36247;51.952;6.146;2022-12-07T13:06:44;101386.63;;;7.35;100.00
29909;BME280;36247;51.952;6.146;2022-12-07T13:09:21;101380.81;;;7.44;100.00
29909;BME280;36247;51.952;6.146;2022-12-07T13:11:50;101372.44;;;7.07;100.00
29909;BME280;36247;51.952;6.146;2022-12-07T13:14:52;101375.94;;;7.06;100.00
29909;BME280;36247;51.952;6.146;2022-12-07T13:20:03;101362.81;;;7.58;100.00
29909;BME280;36247;51.952;6.146;2022-12-07T13:27:31;101355.38;;;9.48;100.00
29909;BME280;36247;51.952;6.146;2022-12-07T13:29:57;101354.22;;;10.05;100.00
29909;BME280;36247;51.952;6.146;2022-12-07T13:32:28;101346.13;;;9.64;100.00
29909;BME280;36247;51.952;6.146;2022-12-07T13:34:54;101334.69;;;8.99;100.00
29909;BME280;36247;51.952;6.146;2022-12-07T13:37:28;101344.00;;;8.56;100.00
29909;BME280;36247;51.952;6.146;2022-12-07T13:40:20;101338.94;;;8.06;100.00
29909;BME280;36247;51.952;6.146;2022-12-07T13:42:45;101327.56;;;8.97;100.00
29909;BME280;36247;51.952;6.146;2022-12-07T13:45:24;101329.56;;;7.62;100.00
29909;BME280;36247;51.952;6.146;2022-12-07T13:48:31;101332.28;;;6.89;100.00
29909;BME280;36247;51.952;6.146;2022-12-07T13:51:02;101336.72;;;6.66;100.00
29909;BME280;36247;51.952;6.146;2022-12-07T13:53:28;101323.94;;;6.77;100.00
29909;BME280;36247;51.952;6.146;2022-12-07T13:56:00;101327.06;;;6.91;100.00
29909;BME280;36247;51.952;6.146;2022-12-07T13:58:27;101326.13;;;6.42;100.00
29909;BME280;36247;51.952;6.146;2022-12-07T14:00:55;101329.19;;;6.52;100.00
29909;BME280;36247;51.952;6.146;2022-12-07T14:03:30;101325.50;;;6.49;100.00
29909;BME280;36247;51.952;6.146;2022-12-07T14:08:30;101309.38;;;8.45;100.00
29909;BME280;36247;51.952;6.146;2022-12-07T14:10:57;101316.13;;;8.37;100.00
29909;BME280;36247;51.952;6.146;2022-12-07T14:13:39;101309.31;;;8.74;100.00
29909;BME280;36247;51.952;6.146;2022-12-07T14:16:38;101310.94;;;8.11;100.00
29909;BME280;36247;51.952;6.146;2022-12-07T14:19:18;101322.19;;;7.26;100.00
29909;BME280;36247;51.952;6.146;2022-12-07T14:22:06;101317.28;;;7.36;100.00
29909;BME280;36247;51.952;6.146;2022-12-07T14:24:41;101315.13;;;7.00;100.00
29909;BME280;36247;51.952;6.146;2022-12-07T14:27:20;101323.19;;;6.34;100.00
29909;BME280;36247;51.952;6.146;2022-12-07T14:29:46;101326.22;;;5.78;100.00
29909;BME280;36247;51.952;6.146;2022-12-07T14:35:12;101328.47;;;4.88;100.00
29909;BME280;36247;51.952;6.146;2022-12-07T14:37:40;101326.97;;;4.73;100.00
29909;BME280;36247;51.952;6.146;2022-12-07T14:40:09;101343.31;;;4.11;100.00
29909;BME280;36247;51.952;6.146;2022-12-07T14:42:37;101345.75;;;4.26;100.00
29909;BME280;36247;51.952;6.146;2022-12-07T14:45:03;101337.28;;;4.51;100.00
29909;BME280;36247;51.952;6.146;2022-12-07T14:47:29;101325.84;;;4.88;100.00